Terminal Aerodrome Forecast
Issued by NWS

Home | Current Version | Previous Version | Text Only | Print | Product List | Glossary On
Versions: 1 2 3 4 5 6 7 8 9 10 11 12
609
FTUS43 KJKL 230520
TAFSJS
TAF
KSJS 230520Z 2306/2406 VRB05KT P6SM BKN250 WS020/16035KT
     FM231400 15006KT 5SM SHRA OVC080
     FM240000 VRB05KT 5SM -SHRA OVC020
     FM240200 23006KT 6SM -SHRA OVC020
     FM240400 23007KT P6SM BKN020=

USA.gov is the U.S. government's official web portal to all federal, state and local government web resources and services.